Terminal Aerodrome Forecast
Issued by NWS Springfield, MO

Home | Current Version | Previous Version | Text Only | Print | Product List | Glossary On
Versions: 1 2 3 4 5 6 7 8 9 10 11 12 13 14 15 16 17 18 19
371
FTUS43 KSGF 282320
TAFSGF
TAF
KSGF 282320Z 2900/2924 VRB04KT P6SM SCT250
     FM290600 04007KT P6SM SCT250
     FM291100 08010KT P6SM BKN250
     FM291500 11012KT P6SM -SHRA BKN040 OVC120
     FM291900 11014G21KT P6SM VCSH BKN030 OVC100=

USA.gov is the U.S. government's official web portal to all federal, state and local government web resources and services.